createdAt,value
2019-05-21T00:02:09.493Z,99.90
2019-05-21T00:04:40.111Z,99.90
2019-05-21T00:07:10.420Z,99.90
2019-05-21T00:09:40.746Z,99.90
2019-05-21T00:12:11.049Z,99.90
2019-05-21T00:14:41.325Z,99.90
2019-05-21T00:17:11.825Z,99.90
2019-05-21T00:19:43.018Z,99.90
2019-05-21T00:22:13.322Z,99.90
2019-05-21T00:24:43.793Z,99.90
2019-05-21T00:27:14.184Z,99.90
2019-05-21T00:29:44.496Z,99.90
2019-05-21T00:32:14.816Z,99.90
2019-05-21T00:34:45.115Z,99.90
2019-05-21T00:37:15.602Z,99.90
2019-05-21T00:39:46.387Z,99.90
2019-05-21T00:42:16.641Z,99.90
2019-05-21T00:44:47.238Z,99.90
2019-05-21T00:47:17.877Z,99.90
2019-05-21T00:49:48.511Z,99.90
2019-05-21T00:52:19.134Z,99.90
2019-05-21T00:54:49.696Z,99.90
2019-05-21T00:57:20.297Z,99.90
2019-05-21T00:59:50.558Z,99.90
2019-05-21T01:02:20.882Z,99.90
2019-05-21T01:05:00.168Z,99.90
2019-05-21T01:07:23.097Z,99.90
2019-05-21T01:09:53.430Z,99.90
2019-05-21T01:12:23.776Z,99.90
2019-05-21T01:14:54.037Z,99.90
2019-05-21T01:17:24.328Z,99.90
2019-05-21T01:19:54.639Z,99.90
2019-05-21T01:22:24.909Z,99.90
2019-05-21T01:24:55.211Z,99.90
2019-05-21T01:27:25.485Z,99.90
2019-05-21T01:29:56.129Z,99.90
2019-05-21T01:32:26.659Z,99.90
2019-05-21T01:34:57.087Z,99.90
2019-05-21T01:37:27.389Z,99.90
2019-05-21T01:39:58.049Z,99.90
2019-05-21T01:42:29.629Z,99.90
2019-05-21T01:45:00.227Z,99.90
2019-05-21T01:47:30.519Z,99.90
2019-05-21T01:50:00.771Z,99.90
2019-05-21T01:52:31.373Z,99.90
2019-05-21T01:55:01.622Z,99.90
2019-05-21T01:57:31.923Z,99.90
2019-05-21T02:00:02.202Z,99.90
2019-05-21T02:02:32.514Z,99.90
2019-05-21T02:05:02.795Z,99.90
2019-05-21T02:07:33.089Z,99.90
2019-05-21T02:10:03.409Z,99.90
2019-05-21T02:12:33.833Z,99.90
2019-05-21T02:15:04.129Z,99.90
2019-05-21T02:17:34.413Z,99.90
2019-05-21T02:20:04.725Z,99.90
2019-05-21T02:22:35.027Z,99.90
2019-05-21T02:25:05.354Z,99.90
2019-05-21T02:27:35.693Z,99.90
2019-05-21T02:30:06.895Z,99.90
2019-05-21T02:32:37.918Z,99.90
2019-05-21T02:35:08.223Z,99.90
2019-05-21T02:37:38.465Z,99.90
2019-05-21T02:40:08.787Z,99.90
2019-05-21T02:42:39.048Z,99.90
2019-05-21T02:45:09.335Z,99.90
2019-05-21T02:47:39.599Z,99.90
2019-05-21T02:50:09.928Z,99.90
2019-05-21T02:52:40.248Z,99.90
2019-05-21T02:55:10.550Z,99.90
2019-05-21T02:57:40.824Z,99.90
2019-05-21T03:00:11.139Z,99.90
2019-05-21T03:02:41.390Z,99.90
2019-05-21T03:05:11.699Z,99.90
2019-05-21T03:07:42.015Z,99.90
2019-05-21T03:10:12.333Z,99.90
2019-05-21T03:12:42.653Z,99.90
2019-05-21T03:15:12.931Z,99.90
2019-05-21T03:17:43.238Z,99.90
2019-05-21T03:20:13.545Z,99.90
2019-05-21T03:22:43.869Z,99.90
2019-05-21T03:25:14.200Z,99.90
2019-05-21T03:27:44.472Z,99.90
2019-05-21T03:30:14.817Z,99.90
2019-05-21T03:32:45.094Z,99.90
2019-05-21T03:35:16.215Z,99.90
2019-05-21T03:37:46.572Z,99.90
2019-05-21T03:40:16.919Z,99.90
2019-05-21T03:42:47.243Z,99.90
2019-05-21T03:45:18.109Z,99.90
2019-05-21T03:47:48.441Z,99.90
2019-05-21T03:50:18.715Z,99.90
2019-05-21T03:52:49.023Z,99.90
2019-05-21T03:55:19.344Z,99.90
2019-05-21T03:57:49.667Z,99.90
2019-05-21T04:00:20.060Z,99.90
2019-05-21T04:02:50.364Z,99.90
2019-05-21T04:05:20.948Z,99.90
2019-05-21T04:07:51.327Z,99.90
2019-05-21T04:10:21.662Z,99.90
2019-05-21T04:12:51.938Z,99.90
2019-05-21T04:15:22.251Z,99.90
2019-05-21T04:17:52.523Z,99.90
2019-05-21T04:20:22.817Z,99.90
2019-05-21T04:22:53.093Z,99.90
2019-05-21T04:25:23.409Z,99.90
2019-05-21T04:27:53.685Z,99.90
2019-05-21T04:30:23.976Z,99.90
2019-05-21T04:32:54.233Z,99.90
2019-05-21T04:35:24.551Z,99.90
2019-05-21T04:37:55.562Z,99.90
2019-05-21T04:40:25.875Z,99.90
2019-05-21T04:42:56.160Z,99.90
2019-05-21T04:45:26.467Z,99.90
2019-05-21T04:47:57.027Z,99.90
2019-05-21T04:50:27.301Z,99.90
2019-05-21T04:52:57.764Z,99.90
2019-05-21T04:55:28.039Z,99.90
2019-05-21T04:57:58.970Z,99.90
2019-05-21T05:00:29.275Z,99.90
2019-05-21T05:02:59.525Z,99.90
2019-05-21T05:05:29.857Z,99.90
2019-05-21T05:08:00.147Z,99.90
2019-05-21T05:10:30.447Z,99.90
2019-05-21T05:13:00.710Z,99.90
2019-05-21T05:15:31.043Z,99.90
2019-05-21T05:18:01.777Z,99.90
2019-05-21T05:20:32.078Z,99.90
2019-05-21T05:23:02.472Z,99.90
2019-05-21T05:25:32.757Z,99.90
2019-05-21T05:28:03.044Z,99.90
2019-05-21T05:30:33.632Z,99.90
2019-05-21T05:33:04.360Z,99.90
2019-05-21T05:35:34.663Z,99.90
2019-05-21T05:38:04.978Z,99.90
2019-05-21T05:40:35.317Z,99.90
2019-05-21T05:43:05.584Z,99.90
2019-05-21T05:45:35.934Z,99.90
2019-05-21T05:48:06.208Z,99.90
2019-05-21T05:50:36.508Z,99.90
2019-05-21T05:53:06.822Z,99.90
2019-05-21T05:55:37.146Z,99.90
2019-05-21T05:58:07.400Z,99.90
2019-05-21T06:00:37.709Z,99.90
2019-05-21T06:03:08.018Z,99.90
2019-05-21T06:05:38.900Z,99.80
2019-05-21T06:08:09.200Z,99.20
2019-05-21T06:10:40.191Z,99.00
2019-05-21T06:13:10.671Z,98.70
2019-05-21T06:15:40.950Z,98.00
2019-05-21T06:18:11.202Z,97.00
2019-05-21T06:20:42.106Z,95.00
2019-05-21T06:23:12.375Z,93.30
2019-05-21T06:25:42.666Z,94.20
2019-05-21T06:28:12.994Z,94.50
2019-05-21T06:30:43.320Z,95.30
2019-05-21T06:33:13.625Z,92.90
2019-05-21T06:35:43.929Z,91.20
2019-05-21T06:38:18.129Z,92.50
2019-05-21T06:40:46.184Z,91.60
2019-05-21T06:43:16.424Z,92.00
2019-05-21T06:45:46.726Z,92.00
2019-05-21T06:48:17.032Z,93.80
2019-05-21T06:50:47.849Z,93.80
2019-05-21T06:53:19.165Z,91.90
2019-05-21T06:55:49.683Z,90.80
2019-05-21T06:58:19.955Z,90.40
2019-05-21T07:00:51.136Z,90.90
2019-05-21T07:03:21.414Z,91.70
2019-05-21T07:05:58.880Z,91.20
2019-05-21T07:08:34.225Z,90.70
2019-05-21T07:10:56.078Z,92.00
2019-05-21T07:13:26.395Z,92.40
2019-05-21T07:15:56.660Z,92.10
2019-05-21T07:18:27.001Z,91.70
2019-05-21T07:20:57.503Z,91.80
2019-05-21T07:23:27.801Z,92.50
2019-05-21T07:25:58.066Z,92.20
2019-05-21T07:28:28.376Z,91.10
2019-05-21T07:30:58.667Z,91.20
2019-05-21T07:33:28.973Z,90.20
2019-05-21T07:35:59.246Z,89.70
2019-05-21T07:38:29.549Z,92.40
2019-05-21T07:40:59.803Z,90.30
2019-05-21T07:43:31.596Z,90.90
2019-05-21T07:46:01.954Z,91.20
2019-05-21T07:48:32.374Z,90.40
2019-05-21T07:51:02.803Z,91.50
2019-05-21T07:53:33.060Z,92.20
2019-05-21T07:56:03.750Z,91.50
2019-05-21T07:58:34.041Z,90.30
2019-05-21T08:01:04.336Z,89.70
2019-05-21T08:03:34.661Z,90.50
2019-05-21T08:06:04.554Z,90.70
2019-05-21T08:08:35.339Z,88.70
2019-05-21T08:11:05.078Z,89.80
2019-05-21T08:13:34.965Z,91.20
2019-05-21T08:16:04.911Z,91.30
2019-05-21T08:18:34.779Z,91.60
2019-05-21T08:21:04.767Z,91.60
2019-05-21T08:23:34.543Z,92.20
2019-05-21T08:26:04.279Z,91.90
2019-05-21T08:28:34.059Z,90.60
2019-05-21T08:31:03.899Z,91.70
2019-05-21T08:33:33.730Z,91.30
2019-05-21T08:36:04.147Z,90.40
2019-05-21T08:38:34.587Z,90.70
2019-05-21T08:41:04.438Z,88.60
2019-05-21T08:43:34.202Z,90.00
2019-05-21T08:46:04.422Z,88.40
2019-05-21T08:48:35.190Z,86.00
2019-05-21T08:51:05.073Z,86.30
2019-05-21T08:53:34.922Z,82.90
2019-05-21T08:56:04.670Z,86.00
2019-05-21T08:58:34.374Z,82.60
2019-05-21T09:01:04.282Z,84.40
2019-05-21T09:03:34.103Z,78.40
2019-05-21T09:06:03.915Z,81.00
2019-05-21T09:08:33.703Z,82.70
2019-05-21T09:11:03.510Z,77.90
2019-05-21T09:13:33.315Z,75.60
2019-05-21T09:16:03.459Z,74.80
2019-05-21T09:18:33.348Z,72.10
2019-05-21T09:21:06.605Z,75.20
2019-05-21T09:23:36.398Z,77.40
2019-05-21T09:26:06.237Z,76.00
2019-05-21T09:28:36.708Z,72.10
2019-05-21T09:31:07.439Z,74.00
2019-05-21T09:33:37.215Z,71.90
2019-05-21T09:36:07.977Z,76.60
2019-05-21T09:38:37.814Z,75.30
2019-05-21T09:41:07.582Z,74.30
2019-05-21T09:43:37.354Z,70.30
2019-05-21T09:46:07.465Z,76.90
2019-05-21T09:48:37.356Z,75.10
2019-05-21T09:51:07.078Z,81.80
2019-05-21T09:53:36.870Z,79.30
2019-05-21T09:56:08.229Z,78.20
2019-05-21T09:58:39.550Z,78.90
2019-05-21T10:01:14.022Z,81.50
2019-05-21T10:03:48.359Z,80.40
2019-05-21T10:06:18.082Z,80.40
2019-05-21T10:08:47.854Z,79.40
2019-05-21T10:11:17.610Z,83.10
2019-05-21T10:13:47.494Z,82.90
2019-05-21T10:16:17.197Z,85.80
2019-05-21T10:18:47.009Z,84.50
2019-05-21T10:21:16.752Z,84.60
2019-05-21T10:23:46.576Z,85.80
2019-05-21T10:26:16.444Z,87.10
2019-05-21T10:28:46.163Z,87.10
2019-05-21T10:31:15.894Z,88.50
2019-05-21T10:33:45.741Z,88.60
2019-05-21T10:36:15.579Z,90.20
2019-05-21T10:38:45.401Z,89.10
2019-05-21T10:41:15.208Z,90.10
2019-05-21T10:43:44.942Z,90.20
2019-05-21T10:46:14.926Z,89.20
2019-05-21T10:48:44.685Z,91.30
2019-05-21T10:51:14.660Z,91.90
2019-05-21T10:53:44.509Z,92.30
2019-05-21T10:56:14.277Z,92.30
2019-05-21T10:58:44.069Z,92.90
2019-05-21T11:01:27.415Z,91.00
2019-05-21T11:04:14.046Z,91.70
2019-05-21T11:06:45.357Z,92.10
2019-05-21T11:09:19.788Z,91.50
2019-05-21T11:11:49.602Z,92.00
2019-05-21T11:14:19.307Z,91.40
2019-05-21T11:16:50.200Z,93.00
2019-05-21T11:19:19.941Z,94.40
2019-05-21T11:21:49.696Z,93.50
2019-05-21T11:24:19.431Z,94.20
2019-05-21T11:26:49.249Z,95.00
2019-05-21T11:29:19.079Z,96.20
2019-05-21T11:31:57.269Z,96.70
2019-05-21T11:34:20.587Z,96.20
2019-05-21T11:36:50.347Z,98.20
2019-05-21T11:39:20.092Z,98.70
2019-05-21T11:41:51.658Z,98.90
2019-05-21T11:44:21.239Z,99.90
2019-05-21T11:46:51.011Z,99.90
2019-05-21T11:49:21.750Z,99.90
2019-05-21T11:51:51.502Z,99.90
2019-05-21T11:54:21.299Z,99.90
2019-05-21T11:56:51.063Z,99.90
2019-05-21T11:59:20.863Z,99.90
2019-05-21T12:01:50.621Z,99.90
2019-05-21T12:04:20.335Z,99.90
2019-05-21T12:06:50.129Z,99.90
2019-05-21T12:09:19.916Z,99.90
2019-05-21T12:11:49.645Z,99.90
2019-05-21T12:14:19.429Z,99.90
2019-05-21T12:16:49.211Z,99.90
2019-05-21T12:19:18.947Z,99.90
2019-05-21T12:21:48.724Z,99.90
2019-05-21T12:24:19.244Z,99.90
2019-05-21T12:26:49.100Z,99.90
2019-05-21T12:29:18.897Z,99.90
2019-05-21T12:31:48.615Z,99.90
2019-05-21T12:34:18.356Z,99.90
2019-05-21T12:36:48.263Z,99.90
2019-05-21T12:39:18.090Z,99.90
2019-05-21T12:41:47.838Z,99.90
2019-05-21T12:44:18.718Z,99.90
2019-05-21T12:46:48.442Z,99.90
2019-05-21T12:49:18.303Z,99.90
2019-05-21T12:51:47.991Z,99.90
2019-05-21T12:54:17.732Z,99.90
2019-05-21T12:56:47.490Z,99.90
2019-05-21T12:59:17.276Z,99.90
2019-05-21T13:01:47.034Z,99.90
2019-05-21T13:04:16.789Z,99.90
2019-05-21T13:06:46.580Z,99.90
2019-05-21T13:09:31.520Z,99.90
2019-05-21T13:11:47.730Z,99.90
2019-05-21T13:14:18.876Z,99.90
2019-05-21T13:16:48.838Z,99.90
2019-05-21T13:19:18.627Z,99.90
2019-05-21T13:21:48.403Z,99.90
2019-05-21T13:24:18.297Z,99.90
2019-05-21T13:26:48.012Z,99.90
2019-05-21T13:29:17.793Z,99.90
2019-05-21T13:31:47.532Z,99.90
2019-05-21T13:34:17.363Z,99.90
2019-05-21T13:36:47.071Z,99.90
2019-05-21T13:39:16.837Z,99.90
2019-05-21T13:41:46.567Z,99.90
2019-05-21T13:44:16.351Z,99.90
2019-05-21T13:46:46.119Z,99.90
2019-05-21T13:49:16.981Z,99.90
2019-05-21T13:51:49.257Z,99.90
2019-05-21T13:54:27.434Z,99.90
2019-05-21T13:57:10.196Z,99.90
2019-05-21T13:59:43.092Z,99.90
2019-05-21T14:02:14.316Z,99.90
2019-05-21T14:04:44.148Z,99.90
2019-05-21T14:10:27.375Z,99.90
2019-05-21T14:12:57.125Z,99.90
2019-05-21T14:15:26.922Z,99.90
2019-05-21T14:17:56.703Z,99.90
2019-05-21T14:20:26.556Z,99.90
2019-05-21T14:22:56.334Z,99.90
2019-05-21T14:25:26.110Z,99.90
2019-05-21T14:27:56.027Z,99.90
2019-05-21T14:30:25.774Z,99.90
2019-05-21T14:32:55.503Z,99.90
2019-05-21T14:35:25.255Z,99.90
2019-05-21T14:37:55.027Z,99.90
2019-05-21T14:40:31.759Z,99.90
2019-05-21T14:43:00.332Z,99.90
2019-05-21T14:45:31.286Z,99.90
2019-05-21T14:47:59.712Z,99.90
2019-05-21T14:50:29.474Z,99.90
2019-05-21T14:52:59.278Z,99.90
2019-05-21T14:55:29.018Z,99.90
2019-05-21T14:57:59.095Z,99.90
2019-05-21T15:00:32.164Z,99.90
2019-05-21T15:03:02.022Z,99.90
2019-05-21T15:05:31.959Z,99.90
2019-05-21T15:08:01.940Z,99.90
2019-05-21T15:10:47.167Z,99.90
2019-05-21T15:13:05.919Z,99.90
2019-05-21T15:15:35.717Z,99.90
2019-05-21T15:18:06.150Z,99.90
2019-05-21T15:20:44.518Z,99.90
2019-05-21T15:23:14.560Z,99.90
2019-05-21T15:25:44.384Z,99.90
2019-05-21T15:28:14.147Z,99.90
2019-05-21T15:30:43.949Z,99.90
2019-05-21T15:33:13.753Z,99.90
2019-05-21T15:35:43.501Z,99.90
2019-05-21T15:38:13.246Z,99.90
2019-05-21T15:40:43.005Z,99.90
2019-05-21T15:43:12.736Z,99.90
2019-05-21T15:45:42.540Z,99.90
2019-05-21T15:48:12.285Z,99.90
2019-05-21T15:50:42.053Z,99.90
2019-05-21T15:53:11.794Z,99.90
2019-05-21T15:55:41.901Z,99.90
2019-05-21T15:58:11.669Z,99.90
2019-05-21T16:00:41.394Z,99.90
2019-05-21T16:03:11.270Z,99.90
2019-05-21T16:05:41.020Z,99.90
2019-05-21T16:08:10.750Z,99.90
2019-05-21T16:10:40.742Z,99.90
2019-05-21T16:13:10.631Z,99.90
2019-05-21T16:15:40.384Z,99.90
2019-05-21T16:18:10.132Z,99.90
2019-05-21T16:20:42.526Z,99.90
2019-05-21T16:23:11.271Z,99.90
2019-05-21T16:25:41.122Z,99.90
2019-05-21T16:28:10.840Z,99.90
2019-05-21T16:30:40.729Z,99.90
2019-05-21T16:33:10.524Z,99.90
2019-05-21T16:35:40.287Z,99.90
2019-05-21T16:38:10.280Z,99.90
2019-05-21T16:40:40.226Z,99.90
2019-05-21T16:43:10.050Z,99.90
2019-05-21T16:45:39.793Z,99.90
2019-05-21T16:48:09.585Z,99.90
2019-05-21T16:50:39.328Z,99.90
2019-05-21T16:53:09.099Z,99.90
2019-05-21T16:55:39.061Z,99.90
2019-05-21T16:58:09.005Z,99.90
2019-05-21T17:00:38.710Z,99.90
2019-05-21T17:03:08.512Z,99.90
2019-05-21T17:05:38.250Z,99.90
2019-05-21T17:08:08.056Z,99.90
2019-05-21T17:10:37.822Z,99.90
2019-05-21T17:13:07.562Z,99.90
2019-05-21T17:15:37.355Z,99.90
2019-05-21T17:18:08.217Z,99.90
2019-05-21T17:20:38.002Z,99.90
2019-05-21T17:23:07.842Z,99.90
2019-05-21T17:25:37.658Z,99.90
2019-05-21T17:28:07.399Z,99.90
2019-05-21T17:30:37.186Z,99.90
2019-05-21T17:33:06.929Z,99.90
2019-05-21T17:35:36.705Z,99.90
2019-05-21T17:38:07.325Z,99.90
2019-05-21T17:40:38.573Z,99.90
2019-05-21T17:43:08.310Z,99.90
2019-05-21T17:45:38.306Z,99.90
2019-05-21T17:48:09.026Z,99.90
2019-05-21T17:50:38.825Z,99.90
2019-05-21T17:53:08.745Z,99.90
2019-05-21T17:55:38.536Z,99.90
2019-05-21T17:58:08.248Z,99.90
2019-05-21T18:00:48.846Z,99.90
2019-05-21T18:03:19.435Z,99.90
2019-05-21T18:05:49.822Z,99.90
2019-05-21T18:08:20.896Z,99.90
2019-05-21T18:10:50.983Z,99.90
2019-05-21T18:13:22.378Z,99.90
2019-05-21T18:15:52.328Z,99.90
2019-05-21T18:18:22.278Z,99.90
2019-05-21T18:20:53.160Z,99.90
2019-05-21T18:23:22.903Z,99.90
2019-05-21T18:25:53.662Z,99.90
2019-05-21T18:28:23.466Z,99.90
2019-05-21T18:30:53.270Z,99.90
2019-05-21T18:33:23.028Z,99.90
2019-05-21T18:35:52.781Z,99.90
2019-05-21T18:38:22.674Z,99.90
2019-05-21T18:40:52.409Z,99.90
2019-05-21T18:43:22.263Z,99.90
2019-05-21T18:45:52.007Z,99.90
2019-05-21T18:48:21.789Z,99.90
2019-05-21T18:50:51.584Z,99.90
2019-05-21T18:53:21.468Z,99.90
2019-05-21T18:55:52.371Z,99.90
2019-05-21T18:58:22.143Z,99.90
2019-05-21T19:00:51.932Z,99.90
2019-05-21T19:03:28.830Z,99.90
2019-05-21T19:05:53.067Z,99.90
2019-05-21T19:08:22.905Z,99.90
2019-05-21T19:10:52.661Z,99.90
2019-05-21T19:13:22.538Z,99.90
2019-05-21T19:15:52.340Z,99.90
2019-05-21T19:18:22.109Z,99.90
2019-05-21T19:20:51.954Z,99.90
2019-05-21T19:23:21.747Z,99.90
2019-05-21T19:25:51.486Z,99.90
2019-05-21T19:28:21.276Z,99.90
2019-05-21T19:30:51.005Z,99.90
2019-05-21T19:33:20.793Z,99.90
2019-05-21T19:35:50.585Z,99.90
2019-05-21T19:38:20.323Z,99.90
2019-05-21T19:40:50.718Z,99.90
2019-05-21T19:43:20.453Z,99.90
2019-05-21T19:45:50.215Z,99.90
2019-05-21T19:48:19.970Z,99.90
2019-05-21T19:50:49.758Z,99.90
2019-05-21T19:53:20.499Z,99.90
2019-05-21T19:55:50.387Z,99.90
2019-05-21T19:58:20.328Z,99.90
2019-05-21T20:00:51.749Z,99.90
2019-05-21T20:03:21.478Z,99.90
2019-05-21T20:05:51.418Z,99.90
2019-05-21T20:08:21.199Z,99.90
2019-05-21T20:10:51.117Z,99.90
2019-05-21T20:13:32.078Z,99.90
2019-05-21T20:15:53.035Z,99.90
2019-05-21T20:18:23.968Z,99.90
2019-05-21T20:20:53.686Z,99.90
2019-05-21T20:23:25.031Z,99.90
2019-05-21T20:25:56.861Z,99.90
2019-05-21T20:28:27.349Z,99.90
2019-05-21T20:30:57.597Z,99.90
2019-05-21T20:33:28.194Z,99.90
2019-05-21T20:35:57.940Z,99.90
2019-05-21T20:38:29.475Z,99.90
2019-05-21T20:40:59.754Z,99.90
2019-05-21T20:43:30.625Z,99.90
2019-05-21T20:46:00.856Z,99.90
2019-05-21T20:48:32.426Z,99.90
2019-05-21T20:51:02.719Z,99.90
2019-05-21T20:53:33.807Z,99.90
2019-05-21T20:56:04.628Z,99.90
2019-05-21T20:58:34.420Z,99.90
2019-05-21T21:01:05.790Z,99.90
2019-05-21T21:03:35.518Z,99.90
2019-05-21T21:06:06.298Z,99.90
2019-05-21T21:08:37.645Z,99.90
2019-05-21T21:11:09.119Z,99.90
2019-05-21T21:13:39.174Z,99.90
2019-05-21T21:16:11.078Z,99.90
2019-05-21T21:18:41.490Z,99.90
2019-05-21T21:21:11.518Z,99.90
2019-05-21T21:23:42.724Z,99.90
2019-05-21T21:26:13.344Z,99.90
2019-05-21T21:28:43.319Z,99.90
2019-05-21T21:31:13.258Z,99.90
2019-05-21T21:33:43.367Z,99.90
2019-05-21T21:36:13.303Z,99.90
2019-05-21T21:38:43.297Z,99.90
2019-05-21T21:41:13.945Z,99.90
2019-05-21T21:43:43.726Z,99.90
2019-05-21T21:46:13.502Z,99.90
2019-05-21T21:48:45.611Z,99.90
2019-05-21T21:51:15.775Z,99.90
2019-05-21T21:53:45.802Z,99.90
2019-05-21T21:56:15.955Z,99.90
2019-05-21T21:58:45.699Z,99.90
2019-05-21T22:01:25.721Z,99.90
2019-05-21T22:03:58.262Z,99.90
2019-05-21T22:06:30.010Z,99.90
2019-05-21T22:09:00.377Z,99.90
2019-05-21T22:11:30.629Z,99.90
2019-05-21T22:14:01.014Z,99.90
2019-05-21T22:16:31.467Z,99.90
2019-05-21T22:19:02.046Z,99.90
2019-05-21T22:21:33.139Z,99.90
2019-05-21T22:24:03.572Z,99.90
2019-05-21T22:26:33.614Z,99.90
2019-05-21T22:29:03.690Z,99.90
2019-05-21T22:31:33.462Z,99.90
2019-05-21T22:34:03.233Z,99.90
2019-05-21T22:36:32.992Z,99.90
2019-05-21T22:39:02.725Z,99.90
2019-05-21T22:41:33.292Z,99.90
2019-05-21T22:44:03.353Z,99.90
2019-05-21T22:46:33.126Z,99.90
2019-05-21T22:49:02.869Z,99.90
2019-05-21T22:51:32.941Z,99.90
2019-05-21T22:54:02.696Z,99.90
2019-05-21T22:56:32.959Z,99.90
2019-05-21T22:59:03.631Z,99.90
2019-05-21T23:01:34.813Z,99.90
2019-05-21T23:04:05.489Z,99.90
2019-05-21T23:06:35.457Z,99.90
2019-05-21T23:09:07.271Z,99.90
2019-05-21T23:11:37.363Z,99.90
2019-05-21T23:14:07.156Z,99.90
2019-05-21T23:16:38.194Z,99.90
2019-05-21T23:19:13.962Z,99.90
2019-05-21T23:21:51.997Z,99.90
2019-05-21T23:24:23.635Z,99.90
2019-05-21T23:26:53.896Z,99.90
2019-05-21T23:29:24.259Z,99.90
2019-05-21T23:31:54.715Z,99.90
2019-05-21T23:34:24.685Z,99.90
2019-05-21T23:36:54.983Z,99.90
2019-05-21T23:39:28.254Z,99.90
2019-05-21T23:41:58.035Z,99.90
2019-05-21T23:44:27.914Z,99.90
2019-05-21T23:46:57.734Z,99.90
2019-05-21T23:49:27.602Z,99.90
2019-05-21T23:51:57.419Z,99.90
2019-05-21T23:54:27.290Z,99.90
2019-05-21T23:56:57.835Z,99.90
2019-05-21T23:59:27.804Z,99.90
